Time;durP1;ratioP1;P1;durP2;ratioP2;P2;SDS_P1;SDS_P2;PMS_P1;PMS_P2;Temp;Humidity;BMP_temperature;BMP_pressure;BME280_temperature;BME280_humidity;BME280_pressure;Samples;Min_cycle;Max_cycle;Signal;HPM_P1;HPM_P2
2021/06/17 00:00:36;;;;;;;0.00;0.00;;;25.90;59.40;;;;;;4195880;28;20492;-52
2021/06/17 00:02:58;;;;;;;0.65;0.65;;;25.90;59.40;;;;;;4210094;28;20406;-46
2021/06/17 00:05:21;;;;;;;0.15;0.15;;;25.90;59.40;;;;;;4221946;27;20477;-46
2021/06/17 00:07:43;;;;;;;0.00;0.00;;;25.90;59.50;;;;;;4195341;28;20067;-47
2021/06/17 00:10:07;;;;;;;0.00;0.00;;;25.90;59.60;;;;;;4227174;28;20122;-45
2021/06/17 00:12:30;;;;;;;0.40;0.40;;;25.90;59.60;;;;;;4226393;28;20077;-44
2021/06/17 00:14:52;;;;;;;0.13;0.13;;;25.90;59.60;;;;;;4225188;27;20047;-47
2021/06/17 00:17:15;;;;;;;0.20;0.20;;;25.90;59.70;;;;;;4226995;27;20057;-49
2021/06/17 00:19:38;;;;;;;0.20;0.20;;;25.90;59.70;;;;;;4226727;27;20655;-45
2021/06/17 00:21:59;;;;;;;11.05;0.77;;;25.80;59.60;;;;;;4226758;28;20138;-49
2021/06/17 00:24:21;;;;;;;0.00;0.00;;;25.80;60.50;;;;;;4226655;27;20057;-50
2021/06/17 00:26:44;;;;;;;0.00;0.00;;;25.80;59.70;;;;;;4226930;27;20178;-45
2021/06/17 00:29:06;;;;;;;0.10;0.10;;;25.80;59.70;;;;;;4227031;27;20059;-47
2021/06/17 00:31:28;;;;;;;0.10;0.10;;;25.80;59.70;;;;;;4226850;27;20052;-47
2021/06/17 00:33:52;;;;;;;0.00;0.00;;;25.80;59.80;;;;;;4226460;28;20051;-45
2021/06/17 00:36:14;;;;;;;0.00;0.00;;;25.80;59.80;;;;;;4196256;28;20440;-46
2021/06/17 00:38:36;;;;;;;0.00;0.00;;;25.80;59.80;;;;;;4208447;27;20051;-46
2021/06/17 00:40:59;;;;;;;0.00;0.00;;;25.80;59.90;;;;;;4226540;27;20130;-46
2021/06/17 00:43:21;;;;;;;0.52;0.52;;;25.80;59.90;;;;;;4226115;28;20054;-49
2021/06/17 00:45:45;;;;;;;0.00;0.00;;;25.70;59.80;;;;;;4226233;27;20040;-44
2021/06/17 00:48:08;;;;;;;0.43;0.43;;;25.80;59.90;;;;;;4223824;28;20100;-45
2021/06/17 00:50:34;;;;;;;0.08;0.08;;;25.80;60.00;;;;;;4226115;27;20048;-46
2021/06/17 00:52:56;;;;;;;0.05;0.05;;;25.80;59.90;;;;;;4226155;27;20051;-45
2021/06/17 00:55:19;;;;;;;0.00;0.00;;;25.70;59.90;;;;;;4225987;27;20075;-47
2021/06/17 00:57:41;;;;;;;0.00;0.00;;;25.70;59.90;;;;;;4225996;27;20485;-46
2021/06/17 01:00:05;;;;;;;0.30;0.30;;;25.70;60.00;;;;;;4192319;28;20483;-47
2021/06/17 01:02:28;;;;;;;0.10;0.10;;;25.70;59.90;;;;;;4209425;28;20093;-46
2021/06/17 01:04:50;;;;;;;0.10;0.10;;;25.70;59.90;;;;;;4222651;28;20489;-45
2021/06/17 01:07:24;;;;;;;0.00;0.00;;;25.70;60.00;;;;;;4225888;27;20051;-45
2021/06/17 01:09:50;;;;;;;0.03;0.03;;;25.70;59.90;;;;;;4225773;27;20054;-45
2021/06/17 01:12:19;;;;;;;0.45;0.45;;;25.70;59.90;;;;;;4226040;27;20039;-45
2021/06/17 01:14:45;;;;;;;0.00;0.00;;;25.70;60.90;;;;;;4207585;28;20044;-45
2021/06/17 01:17:11;;;;;;;0.25;0.25;;;25.70;60.00;;;;;;4200440;28;20135;-45
2021/06/17 01:19:48;;;;;;;0.20;0.20;;;25.70;60.00;;;;;;4208436;28;20106;-48
2021/06/17 01:22:29;;;;;;;0.75;0.75;;;25.70;60.00;;;;;;4208919;28;20052;-45
2021/06/17 01:25:05;;;;;;;0.00;0.00;;;25.70;60.10;;;;;;4211793;28;20040;-45
2021/06/17 01:27:47;;;;;;;0.00;0.00;;;25.70;60.20;;;;;;4223982;27;20148;-46
2021/06/17 01:30:12;;;;;;;0.47;0.30;;;25.70;60.20;;;;;;4208768;28;20134;-48
2021/06/17 01:32:36;;;;;;;0.00;0.00;;;25.60;60.20;;;;;;4217610;27;20539;-47
2021/06/17 01:34:59;;;;;;;0.00;0.00;;;25.60;60.30;;;;;;4192054;28;20140;-46
2021/06/17 01:37:27;;;;;;;0.00;0.00;;;25.60;60.30;;;;;;4217664;28;20156;-45
2021/06/17 01:39:51;;;;;;;0.20;0.20;;;25.60;60.30;;;;;;4225422;27;20059;-44
2021/06/17 01:42:15;;;;;;;0.00;0.00;;;25.60;60.30;;;;;;4224280;27;20105;-46
2021/06/17 01:44:38;;;;;;;0.22;0.22;;;25.60;60.40;;;;;;4209751;28;20101;-45
2021/06/17 01:47:03;;;;;;;0.00;0.00;;;25.60;60.40;;;;;;4209823;28;20052;-44
2021/06/17 01:49:26;;;;;;;0.03;0.03;;;25.60;60.40;;;;;;4223776;27;20052;-45
2021/06/17 01:51:49;;;;;;;0.00;0.00;;;25.60;60.50;;;;;;4225294;27;20044;-46
2021/06/17 01:54:21;;;;;;;0.10;0.10;;;25.60;60.50;;;;;;4224856;27;20132;-45
2021/06/17 01:56:43;;;;;;;0.00;0.00;;;25.60;60.50;;;;;;4224571;28;20058;-46
2021/06/17 01:59:06;;;;;;;0.13;0.13;;;25.60;60.50;;;;;;4224813;27;20067;-50
2021/06/17 02:01:31;;;;;;;2.65;1.20;;;25.60;60.60;;;;;;4225259;27;20574;-46
2021/06/17 02:03:55;;;;;;;0.00;0.00;;;25.60;60.60;;;;;;4225230;28;20050;-51
2021/06/17 02:06:20;;;;;;;0.10;0.10;;;25.60;60.60;;;;;;4224913;27;20467;-46
2021/06/17 02:08:45;;;;;;;0.10;0.10;;;25.60;60.70;;;;;;4225437;28;20134;-45
2021/06/17 02:11:07;;;;;;;0.35;0.35;;;25.60;60.70;;;;;;4225323;28;20047;-46
2021/06/17 02:13:31;;;;;;;0.20;0.20;;;25.60;60.80;;;;;;4224315;27;20074;-46
2021/06/17 02:15:56;;;;;;;0.00;0.00;;;25.50;60.80;;;;;;4224971;27;20083;-45
2021/06/17 02:18:25;;;;;;;0.25;0.25;;;25.50;60.80;;;;;;4223578;28;20046;-45
2021/06/17 02:20:49;;;;;;;0.10;0.10;;;25.50;60.90;;;;;;4224212;28;20063;-45
2021/06/17 02:23:14;;;;;;;0.52;0.52;;;25.50;60.80;;;;;;4224919;28;20066;-47
2021/06/17 02:25:37;;;;;;;0.00;0.00;;;25.50;60.90;;;;;;4225089;28;20124;-49
2021/06/17 02:28:02;;;;;;;0.03;0.03;;;25.50;60.90;;;;;;4224650;27;20474;-46
2021/06/17 02:30:28;;;;;;;0.38;0.38;;;25.50;61.00;;;;;;4224676;27;20613;-46
2021/06/17 02:32:53;;;;;;;0.28;0.28;;;25.50;61.00;;;;;;4224231;28;20150;-45
2021/06/17 02:35:19;;;;;;;0.20;0.20;;;25.50;61.10;;;;;;4192123;28;20102;-46
2021/06/17 02:37:45;;;;;;;0.00;0.00;;;25.50;61.10;;;;;;4207626;28;20070;-47
2021/06/17 02:40:10;;;;;;;0.60;0.60;;;25.50;61.20;;;;;;4214830;28;20478;-48
2021/06/17 02:42:48;;;;;;;0.10;0.10;;;25.50;61.20;;;;;;4224032;28;20050;-46
2021/06/17 02:45:12;;;;;;;0.50;0.50;;;25.40;61.30;;;;;;4208656;28;20135;-48
2021/06/17 02:47:35;;;;;;;0.00;0.00;;;25.40;61.20;;;;;;4224420;28;20049;-45
2021/06/17 02:49:57;;;;;;;0.13;0.13;;;25.40;61.30;;;;;;4223164;28;20138;-46
2021/06/17 02:52:19;;;;;;;0.13;0.13;;;25.40;61.30;;;;;;4224561;28;20560;-46
2021/06/17 02:54:42;;;;;;;0.52;0.52;;;25.40;61.30;;;;;;4223939;28;20052;-45
2021/06/17 02:57:20;;;;;;;0.63;0.63;;;25.40;61.50;;;;;;4223485;28;20509;-46
2021/06/17 02:59:58;;;;;;;0.20;0.20;;;25.40;61.50;;;;;;4223799;28;20417;-46
2021/06/17 03:02:25;;;;;;;0.60;0.60;;;25.40;61.50;;;;;;4220164;28;20047;-47
2021/06/17 03:04:50;;;;;;;0.95;0.38;;;25.40;61.60;;;;;;4224085;28;20043;-47
2021/06/17 03:07:18;;;;;;;0.35;0.35;;;25.40;61.60;;;;;;4224880;28;20561;-46
2021/06/17 03:09:45;;;;;;;0.25;0.25;;;25.40;61.60;;;;;;4224246;28;20092;-46
2021/06/17 03:12:10;;;;;;;0.50;0.30;;;25.40;61.70;;;;;;4224523;28;20056;-45
2021/06/17 03:14:36;;;;;;;0.00;0.00;;;25.40;61.70;;;;;;4192037;28;20423;-45
2021/06/17 03:16:59;;;;;;;0.00;0.00;;;25.40;61.80;;;;;;4215602;28;20436;-45
2021/06/17 03:19:22;;;;;;;0.28;0.28;;;25.30;61.70;;;;;;4223868;28;20139;-45
2021/06/17 03:21:48;;;;;;;0.85;0.73;;;25.30;61.70;;;;;;4224565;28;20048;-45
2021/06/17 03:24:11;;;;;;;0.00;0.00;;;25.30;62.60;;;;;;4222179;28;20054;-45
2021/06/17 03:26:38;;;;;;;0.00;0.00;;;25.40;61.80;;;;;;4208259;28;20044;-45
2021/06/17 03:29:03;;;;;;;0.25;0.25;;;25.30;61.80;;;;;;4223655;28;20516;-46
2021/06/17 03:31:28;;;;;;;0.47;0.47;;;25.30;61.80;;;;;;4223095;28;20482;-45
2021/06/17 03:33:51;;;;;;;0.32;0.32;;;25.30;61.80;;;;;;4223955;28;20750;-44
2021/06/17 03:36:13;;;;;;;0.10;0.10;;;25.30;61.80;;;;;;4222769;28;20043;-48
2021/06/17 03:38:36;;;;;;;0.03;0.03;;;25.30;61.80;;;;;;4223851;28;20462;-46
2021/06/17 03:40:59;;;;;;;0.32;0.32;;;25.30;61.90;;;;;;4224201;28;20051;-45
2021/06/17 03:43:25;;;;;;;0.20;0.20;;;25.30;61.90;;;;;;4225738;27;20474;-45
2021/06/17 03:45:49;;;;;;;0.35;0.35;;;25.30;61.90;;;;;;4227409;28;20470;-47
2021/06/17 03:48:14;;;;;;;0.10;0.10;;;25.30;61.90;;;;;;4227303;27;20101;-46
2021/06/17 03:50:37;;;;;;;0.20;0.20;;;25.30;61.90;;;;;;4227267;27;20055;-48
2021/06/17 03:53:01;;;;;;;0.10;0.10;;;25.30;62.00;;;;;;4226872;27;20042;-46
2021/06/17 03:55:23;;;;;;;0.08;0.08;;;25.30;62.10;;;;;;4227336;27;20093;-47
2021/06/17 03:57:48;;;;;;;0.20;0.20;;;25.30;62.10;;;;;;4227118;27;20092;-45
2021/06/17 04:00:13;;;;;;;0.50;0.50;;;25.30;62.20;;;;;;4225611;27;20578;-50
2021/06/17 04:02:37;;;;;;;0.00;0.00;;;25.30;62.20;;;;;;4225832;28;20076;-47
2021/06/17 04:04:59;;;;;;;0.08;0.08;;;25.30;62.30;;;;;;4227182;27;20447;-48
2021/06/17 04:07:24;;;;;;;0.65;0.65;;;25.30;62.30;;;;;;4210185;28;20059;-46
2021/06/17 04:09:48;;;;;;;0.93;0.73;;;25.30;62.30;;;;;;4224060;27;20048;-44
2021/06/17 04:12:12;;;;;;;0.25;0.25;;;25.30;62.40;;;;;;4226642;27;20059;-51
2021/06/17 04:14:38;;;;;;;0.03;0.03;;;25.30;62.40;;;;;;4226552;28;20047;-48
2021/06/17 04:17:04;;;;;;;1.45;0.60;;;25.20;62.40;;;;;;4226974;27;20083;-50
2021/06/17 04:19:28;;;;;;;0.40;0.40;;;25.30;62.50;;;;;;4225909;27;20043;-48
2021/06/17 04:21:53;;;;;;;0.80;0.63;;;25.30;62.50;;;;;;4226773;28;20059;-50
2021/06/17 04:24:19;;;;;;;0.00;0.00;;;25.20;62.40;;;;;;4226656;27;20036;-50
2021/06/17 04:26:42;;;;;;;0.00;0.00;;;25.20;62.50;;;;;;4226952;27;20059;-52
2021/06/17 04:29:05;;;;;;;0.00;0.00;;;25.20;62.50;;;;;;4226319;28;20053;-48
2021/06/17 04:31:29;;;;;;;0.80;0.80;;;25.30;62.60;;;;;;4225403;27;20044;-51
2021/06/17 04:33:53;;;;;;;0.20;0.20;;;25.20;62.50;;;;;;4226396;27;20047;-46
2021/06/17 04:36:16;;;;;;;0.52;0.52;;;25.20;62.60;;;;;;4226851;27;20553;-47
2021/06/17 04:38:39;;;;;;;1.85;0.55;;;25.20;62.60;;;;;;4210668;28;20405;-47
2021/06/17 04:41:01;;;;;;;2.65;1.00;;;25.20;62.60;;;;;;4225993;28;20126;-45
2021/06/17 04:43:25;;;;;;;0.00;0.00;;;25.30;62.70;;;;;;4226386;27;20490;-46
2021/06/17 04:45:48;;;;;;;0.22;0.22;;;25.30;62.70;;;;;;4226437;27;20496;-45
2021/06/17 04:48:12;;;;;;;0.10;0.10;;;25.30;62.50;;;;;;4225961;27;20064;-48
2021/06/17 04:50:36;;;;;;;0.10;0.10;;;25.30;62.60;;;;;;4226266;27;20043;-47
2021/06/17 04:53:10;;;;;;;2.20;1.48;;;25.30;62.70;;;;;;4226502;27;20047;-48
2021/06/17 04:55:34;;;;;;;3.50;1.95;;;25.30;62.80;;;;;;4225303;27;20562;-46
2021/06/17 04:57:58;;;;;;;1.08;1.08;;;25.30;62.80;;;;;;4225669;27;20409;-49
2021/06/17 05:00:21;;;;;;;0.20;0.20;;;25.30;62.70;;;;;;4226061;27;20051;-45
2021/06/17 05:02:43;;;;;;;0.10;0.10;;;25.40;62.80;;;;;;4226152;28;20128;-46
2021/06/17 05:05:08;;;;;;;1.25;0.65;;;25.40;62.80;;;;;;4226197;27;20067;-47
2021/06/17 05:07:54;;;;;;;0.63;0.63;;;25.40;62.90;;;;;;4225671;27;20047;-46
2021/06/17 05:12:56;;;;;;;0.10;0.10;;;25.40;63.00;;;;;;4226139;27;20096;-47
2021/06/17 05:15:18;;;;;;;0.13;0.13;;;25.40;63.00;;;;;;4225948;27;20052;-47
2021/06/17 05:17:40;;;;;;;0.00;0.00;;;25.50;63.30;;;;;;4225788;27;20063;-48
2021/06/17 05:20:03;;;;;;;1.70;1.60;;;25.60;63.40;;;;;;4225260;27;20069;-46
2021/06/17 05:22:26;;;;;;;1.38;0.75;;;25.70;63.40;;;;;;4224692;27;20139;-45
2021/06/17 05:24:49;;;;;;;0.35;0.35;;;25.90;63.10;;;;;;4225409;28;20052;-45
2021/06/17 05:27:11;;;;;;;0.10;0.10;;;26.10;63.10;;;;;;4225499;28;20048;-46
2021/06/17 05:29:34;;;;;;;0.10;0.10;;;26.20;63.00;;;;;;4225429;28;20066;-48
2021/06/17 05:31:56;;;;;;;0.25;0.25;;;26.20;62.50;;;;;;4224452;28;20411;-44
2021/06/17 05:34:18;;;;;;;1.35;1.30;;;26.30;62.20;;;;;;4225521;27;20059;-45
2021/06/17 05:36:40;;;;;;;1.13;1.05;;;26.30;62.10;;;;;;4225157;28;20513;-46
2021/06/17 05:39:03;;;;;;;1.08;0.65;;;26.30;62.10;;;;;;4225044;27;20757;-45
2021/06/17 05:41:27;;;;;;;1.55;1.45;;;26.30;62.00;;;;;;4225006;27;20161;-45
2021/06/17 05:43:49;;;;;;;0.22;0.22;;;26.40;62.00;;;;;;4208921;28;20055;-47
2021/06/17 05:46:11;;;;;;;0.22;0.22;;;26.40;62.10;;;;;;4210017;28;20055;-46
2021/06/17 05:48:33;;;;;;;0.75;0.75;;;26.40;63.20;;;;;;4212591;27;20043;-46
2021/06/17 05:50:56;;;;;;;0.52;0.50;;;26.30;62.40;;;;;;4225079;27;20036;-46
2021/06/17 05:53:17;;;;;;;0.65;0.65;;;26.30;62.60;;;;;;4192828;28;20054;-46
2021/06/17 05:55:40;;;;;;;0.10;0.10;;;26.30;62.80;;;;;;4208684;28;20044;-46
2021/06/17 05:58:04;;;;;;;0.00;0.00;;;26.30;63.30;;;;;;4219966;28;20044;-48
2021/06/17 06:00:26;;;;;;;0.10;0.10;;;26.20;63.70;;;;;;4225281;28;20054;-46
2021/06/17 06:02:49;;;;;;;6.97;2.03;;;26.20;64.10;;;;;;4225052;28;20051;-45
2021/06/17 06:05:11;;;;;;;0.28;0.28;;;26.20;64.20;;;;;;4216574;27;20097;-44
2021/06/17 06:07:33;;;;;;;0.93;0.93;;;26.10;64.40;;;;;;4218338;28;20063;-45
2021/06/17 06:09:55;;;;;;;0.20;0.20;;;26.10;64.40;;;;;;4224542;28;20054;-45
2021/06/17 06:12:17;;;;;;;0.63;0.63;;;26.10;64.60;;;;;;4224616;27;20063;-45
2021/06/17 06:14:41;;;;;;;0.28;0.28;;;26.10;64.80;;;;;;4225151;27;20504;-45
2021/06/17 06:17:04;;;;;;;2.28;1.77;;;26.20;64.80;;;;;;4224650;28;20062;-49
2021/06/17 06:19:26;;;;;;;2.20;2.10;;;26.20;64.60;;;;;;4224457;27;20047;-45
2021/06/17 06:21:48;;;;;;;1.20;1.13;;;26.20;65.30;;;;;;4187641;28;20044;-45
2021/06/17 06:24:11;;;;;;;0.38;0.38;;;26.20;64.20;;;;;;4190856;28;20140;-45
2021/06/17 06:26:34;;;;;;;0.63;0.63;;;26.30;64.30;;;;;;4175183;28;20068;-46
2021/06/17 06:28:56;;;;;;;0.52;0.52;;;26.30;64.00;;;;;;4174820;28;20136;-46
2021/06/17 06:31:20;;;;;;;7.93;1.92;;;26.30;63.80;;;;;;4188341;28;20133;-46
2021/06/17 06:33:42;;;;;;;1.08;0.85;;;26.30;63.70;;;;;;4174994;28;20090;-46
2021/06/17 06:36:04;;;;;;;0.20;0.20;;;26.40;63.70;;;;;;4174734;28;20754;-47
2021/06/17 06:38:26;;;;;;;1.17;1.15;;;26.40;63.50;;;;;;4174802;28;20130;-47
2021/06/17 06:40:49;;;;;;;1.38;1.27;;;26.50;63.40;;;;;;4173857;28;20053;-45
2021/06/17 06:43:15;;;;;;;0.77;0.77;;;26.50;63.10;;;;;;4174772;28;20057;-48
2021/06/17 06:45:37;;;;;;;0.85;0.85;;;26.70;62.90;;;;;;4190466;28;20041;-47
2021/06/17 06:48:01;;;;;;;1.02;0.93;;;26.80;62.50;;;;;;4182966;28;20484;-47
2021/06/17 06:50:24;;;;;;;0.77;0.77;;;26.80;62.10;;;;;;4175041;28;20063;-49
2021/06/17 06:52:46;;;;;;;0.55;0.55;;;26.90;61.90;;;;;;4182448;28;20056;-50
2021/06/17 06:55:09;;;;;;;0.50;0.50;;;26.90;61.50;;;;;;4191105;28;20041;-47
2021/06/17 06:57:31;;;;;;;1.00;0.77;;;27.00;61.30;;;;;;4180495;28;20506;-47
2021/06/17 06:59:53;;;;;;;1.63;1.55;;;27.10;61.00;;;;;;4190857;28;20054;-50
2021/06/17 07:02:15;;;;;;;1.45;1.38;;;27.20;60.70;;;;;;4190653;28;20041;-49
2021/06/17 07:04:39;;;;;;;0.32;0.32;;;27.30;60.50;;;;;;4179767;28;20045;-46
2021/06/17 07:07:01;;;;;;;1.05;1.05;;;27.30;60.20;;;;;;4190296;28;20048;-49
2021/06/17 07:09:23;;;;;;;1.27;1.27;;;27.40;60.00;;;;;;4184067;28;20132;-48
2021/06/17 07:11:47;;;;;;;1.38;0.85;;;27.40;59.90;;;;;;4174259;28;20574;-46
2021/06/17 07:14:09;;;;;;;0.22;0.22;;;27.40;59.70;;;;;;4174593;28;20060;-47
2021/06/17 07:16:31;;;;;;;0.32;0.32;;;27.40;59.60;;;;;;4174561;28;20499;-48
2021/06/17 07:18:55;;;;;;;0.35;0.35;;;27.50;59.60;;;;;;4177638;28;20135;-45
2021/06/17 07:21:19;;;;;;;4.30;2.30;;;27.50;59.50;;;;;;4221689;27;20040;-47
2021/06/17 07:23:41;;;;;;;0.55;0.55;;;27.60;59.50;;;;;;4227464;27;20420;-48
2021/06/17 07:26:04;;;;;;;1.80;0.82;;;27.60;59.50;;;;;;4227762;27;20047;-49
2021/06/17 07:28:26;;;;;;;0.10;0.10;;;27.60;59.50;;;;;;4227143;27;20059;-49
2021/06/17 07:30:48;;;;;;;1.27;1.23;;;27.60;59.40;;;;;;4226950;28;20055;-47
2021/06/17 07:33:11;;;;;;;1.75;1.15;;;27.60;59.40;;;;;;4224403;28;20418;-47
2021/06/17 07:35:33;;;;;;;0.55;0.55;;;27.70;59.40;;;;;;4226492;28;20097;-49
2021/06/17 07:37:57;;;;;;;0.30;0.30;;;27.70;59.60;;;;;;4226506;28;20043;-50
2021/06/17 07:40:20;;;;;;;0.43;0.43;;;27.70;59.80;;;;;;4227040;27;20054;-47
2021/06/17 07:42:42;;;;;;;0.20;0.20;;;27.70;59.60;;;;;;4226654;27;20051;-51
2021/06/17 07:45:06;;;;;;;1.20;1.20;;;27.70;59.70;;;;;;4227086;28;20049;-50
2021/06/17 07:47:28;;;;;;;0.00;0.00;;;27.70;59.60;;;;;;4196604;28;20048;-48
2021/06/17 07:49:50;;;;;;;1.23;1.13;;;27.70;59.90;;;;;;4194172;28;20506;-48
2021/06/17 07:52:12;;;;;;;0.43;0.43;;;27.70;59.80;;;;;;4208827;28;20701;-51
2021/06/17 07:54:36;;;;;;;0.22;0.22;;;27.70;59.80;;;;;;4208824;28;20048;-53
2021/06/17 07:56:59;;;;;;;0.28;0.28;;;27.70;59.70;;;;;;4217738;28;20476;-47
2021/06/17 07:59:22;;;;;;;0.82;0.82;;;27.60;59.60;;;;;;4211366;28;20052;-49
2021/06/17 08:01:44;;;;;;;0.55;0.55;;;27.60;59.60;;;;;;4226039;28;20051;-50
2021/06/17 08:04:07;;;;;;;1.13;1.13;;;27.60;59.70;;;;;;4226439;28;20044;-49
2021/06/17 08:06:29;;;;;;;0.98;0.95;;;27.60;59.80;;;;;;4225904;28;20484;-47
2021/06/17 08:08:51;;;;;;;0.43;0.40;;;27.60;59.90;;;;;;4226938;27;20043;-46
2021/06/17 08:11:15;;;;;;;3.30;0.45;;;27.60;60.00;;;;;;4226037;28;20048;-46
2021/06/17 08:13:47;;;;;;;0.60;0.60;;;27.60;59.90;;;;;;4212936;27;20059;-48
2021/06/17 08:16:08;;;;;;;0.17;0.17;;;27.60;60.00;;;;;;4218423;27;20071;-50
2021/06/17 08:18:31;;;;;;;0.00;0.00;;;27.60;60.00;;;;;;4226758;27;20047;-46
2021/06/17 08:20:55;;;;;;;0.00;0.00;;;27.70;60.10;;;;;;4214909;27;20055;-47
2021/06/17 08:23:19;;;;;;;1.10;1.10;;;27.70;60.20;;;;;;4226155;27;20486;-46
2021/06/17 08:25:41;;;;;;;0.00;0.00;;;27.70;60.20;;;;;;4226653;27;20051;-47
2021/06/17 08:28:06;;;;;;;0.15;0.15;;;27.70;60.20;;;;;;4224894;27;20081;-46
2021/06/17 08:30:28;;;;;;;0.85;0.85;;;27.70;60.20;;;;;;4225905;27;20455;-50
2021/06/17 08:32:50;;;;;;;1.23;1.23;;;27.70;60.20;;;;;;4224866;27;20405;-46
2021/06/17 08:35:13;;;;;;;0.40;0.40;;;27.70;60.20;;;;;;4226678;27;20493;-48
2021/06/17 08:37:36;;;;;;;0.52;0.40;;;27.70;60.10;;;;;;4226695;27;20164;-50
2021/06/17 08:39:58;;;;;;;0.35;0.35;;;27.70;60.10;;;;;;4226539;28;20051;-46
2021/06/17 08:42:20;;;;;;;4.85;2.15;;;27.80;60.30;;;;;;4226257;27;20075;-45
2021/06/17 08:44:44;;;;;;;0.80;0.80;;;27.70;60.10;;;;;;4226286;28;20485;-49
2021/06/17 08:47:07;;;;;;;0.30;0.30;;;27.80;60.20;;;;;;4215836;27;20385;-47
2021/06/17 08:49:29;;;;;;;1.00;1.00;;;27.80;60.10;;;;;;4218868;28;20075;-45
2021/06/17 08:51:51;;;;;;;0.63;0.63;;;27.80;60.10;;;;;;4206195;28;20557;-49
2021/06/17 08:54:20;;;;;;;0.30;0.30;;;27.80;60.10;;;;;;4226081;28;20461;-48
2021/06/17 08:56:42;;;;;;;0.28;0.28;;;27.90;60.10;;;;;;4224984;28;20816;-46
2021/06/17 08:59:05;;;;;;;1.85;1.25;;;27.90;60.00;;;;;;4225299;28;20055;-47
2021/06/17 09:01:29;;;;;;;0.68;0.65;;;27.90;59.90;;;;;;4226142;27;20066;-46
2021/06/17 09:03:52;;;;;;;0.47;0.45;;;28.00;59.90;;;;;;4225208;28;20043;-47
2021/06/17 09:06:18;;;;;;;0.55;0.55;;;28.00;59.80;;;;;;4225914;27;20054;-48
2021/06/17 09:08:41;;;;;;;1.13;1.13;;;28.00;60.60;;;;;;4226352;27;20474;-46
2021/06/17 09:11:04;;;;;;;0.30;0.30;;;28.00;59.80;;;;;;4226031;27;20049;-46
2021/06/17 09:13:30;;;;;;;0.52;0.47;;;28.10;59.90;;;;;;4225469;28;20051;-46
2021/06/17 09:15:54;;;;;;;0.17;0.17;;;28.10;59.70;;;;;;4223517;28;20825;-45
2021/06/17 09:18:24;;;;;;;0.28;0.28;;;28.10;59.70;;;;;;4226198;27;20074;-47
2021/06/17 09:20:51;;;;;;;0.17;0.17;;;28.20;59.80;;;;;;4225073;28;20585;-46
2021/06/17 09:23:25;;;;;;;0.40;0.40;;;28.20;59.70;;;;;;4224782;27;20047;-46
2021/06/17 09:25:49;;;;;;;0.15;0.15;;;28.20;59.60;;;;;;4225219;28;20040;-47
2021/06/17 09:28:11;;;;;;;0.28;0.28;;;28.20;59.60;;;;;;4225787;28;20047;-47
2021/06/17 09:30:34;;;;;;;0.40;0.40;;;28.30;59.50;;;;;;4209284;28;20551;-50
2021/06/17 09:33:00;;;;;;;0.20;0.20;;;28.30;59.40;;;;;;4220445;28;20052;-50
2021/06/17 09:35:25;;;;;;;0.20;0.20;;;28.30;59.30;;;;;;4225884;27;20051;-46
2021/06/17 09:37:48;;;;;;;0.10;0.10;;;28.40;59.20;;;;;;4224851;28;20412;-48
2021/06/17 09:40:28;;;;;;;0.57;0.38;;;28.40;59.20;;;;;;4224993;28;20078;-46
2021/06/17 09:42:52;;;;;;;0.10;0.10;;;28.50;59.30;;;;;;4224328;27;20039;-46
2021/06/17 09:45:18;;;;;;;0.32;0.32;;;28.50;59.20;;;;;;4224710;27;20409;-46
2021/06/17 09:47:40;;;;;;;2.40;0.70;;;28.50;59.20;;;;;;4224955;27;20534;-45
2021/06/17 09:50:20;;;;;;;0.45;0.45;;;28.60;59.20;;;;;;4208323;28;20051;-45
2021/06/17 09:52:45;;;;;;;0.10;0.10;;;28.60;59.20;;;;;;4208054;28;20047;-49
2021/06/17 09:55:08;;;;;;;0.75;0.75;;;28.60;59.10;;;;;;4213754;28;20059;-47
2021/06/17 09:57:35;;;;;;;0.25;0.25;;;28.60;59.00;;;;;;4224792;27;20066;-46
2021/06/17 10:00:09;;;;;;;0.38;0.38;;;28.70;59.00;;;;;;4224836;27;20051;-45
2021/06/17 10:02:35;;;;;;;0.13;0.13;;;28.70;58.90;;;;;;4224495;27;20566;-45
2021/06/17 10:05:11;;;;;;;0.47;0.40;;;28.70;58.80;;;;;;4224391;28;20138;-45
2021/06/17 10:07:35;;;;;;;0.10;0.10;;;28.80;58.80;;;;;;4224756;28;20433;-49
2021/06/17 10:09:59;;;;;;;0.15;0.15;;;28.80;58.60;;;;;;4225072;27;20065;-46
2021/06/17 10:12:21;;;;;;;0.10;0.10;;;28.80;58.50;;;;;;4222748;27;20059;-54
2021/06/17 10:14:44;;;;;;;0.60;0.47;;;28.80;58.40;;;;;;4216071;27;20490;-45
2021/06/17 10:17:07;;;;;;;0.22;0.22;;;28.90;58.30;;;;;;4216367;28;20048;-46
2021/06/17 10:19:31;;;;;;;0.25;0.25;;;28.90;58.20;;;;;;4222899;28;20043;-46
2021/06/17 10:21:54;;;;;;;0.52;0.52;;;28.90;58.10;;;;;;4224723;28;20528;-47
2021/06/17 10:24:18;;;;;;;0.25;0.25;;;29.00;58.10;;;;;;4224987;28;20063;-49
2021/06/17 10:26:44;;;;;;;0.25;0.25;;;29.00;58.00;;;;;;4223911;28;20143;-46
2021/06/17 10:29:06;;;;;;;0.35;0.35;;;29.00;58.00;;;;;;4216266;28;20088;-47
2021/06/17 10:31:47;;;;;;;0.10;0.10;;;29.10;57.90;;;;;;4207902;28;20716;-50
2021/06/17 10:34:30;;;;;;;0.25;0.25;;;29.10;57.90;;;;;;4207961;28;20043;-50
2021/06/17 10:37:13;;;;;;;0.15;0.15;;;29.20;57.70;;;;;;4207745;28;20081;-47
2021/06/17 10:39:40;;;;;;;1.45;0.75;;;29.20;57.60;;;;;;4207617;28;20075;-46
2021/06/17 10:42:15;;;;;;;0.52;0.30;;;29.20;57.50;;;;;;4218060;28;20047;-47
2021/06/17 10:44:42;;;;;;;0.30;0.30;;;29.20;57.30;;;;;;4219280;28;20103;-52
2021/06/17 10:47:05;;;;;;;0.20;0.20;;;29.30;57.20;;;;;;4217860;28;20044;-46
2021/06/17 10:50:01;;;;;;;0.10;0.10;;;29.30;57.00;;;;;;4221608;28;20055;-49
2021/06/17 10:52:25;;;;;;;0.47;0.47;;;29.40;56.90;;;;;;4223790;28;20087;-48
2021/06/17 10:54:58;;;;;;;0.20;0.20;;;29.40;56.70;;;;;;4224554;27;20829;-51
2021/06/17 10:57:52;;;;;;;0.17;0.17;;;29.40;56.60;;;;;;4224044;28;20047;-46
2021/06/17 11:00:46;;;;;;;0.70;0.63;;;29.40;56.50;;;;;;4217865;28;20695;-50
2021/06/17 11:03:37;;;;;;;0.63;0.63;;;29.50;56.60;;;;;;4197865;28;20063;-49
2021/06/17 11:05:58;;;;;;;0.00;0.00;;;29.50;56.50;;;;;;4224194;28;20059;-50
2021/06/17 11:08:24;;;;;;;0.30;0.30;;;29.50;56.40;;;;;;4224477;28;20059;-53
2021/06/17 11:10:48;;;;;;;0.10;0.10;;;29.60;56.50;;;;;;4224026;28;20585;-52
2021/06/17 11:13:26;;;;;;;0.95;0.65;;;29.60;56.30;;;;;;4207502;28;20052;-53
2021/06/17 11:15:48;;;;;;;0.20;0.20;;;29.70;56.30;;;;;;4219448;28;20054;-54
2021/06/17 11:18:11;;;;;;;0.25;0.25;;;29.70;56.20;;;;;;4223540;28;20060;-53
2021/06/17 11:20:41;;;;;;;3.15;0.85;;;29.70;56.10;;;;;;4222691;28;20128;-54
2021/06/17 11:23:03;;;;;;;0.55;0.47;;;29.80;56.10;;;;;;4224438;28;20548;-49
2021/06/17 11:25:28;;;;;;;0.20;0.20;;;29.80;56.10;;;;;;4224192;28;20100;-48
2021/06/17 11:27:57;;;;;;;0.28;0.28;;;29.80;56.00;;;;;;4207287;28;20044;-46
2021/06/17 11:30:21;;;;;;;0.25;0.25;;;29.80;55.90;;;;;;4207403;28;20052;-47
2021/06/17 11:32:44;;;;;;;1.05;0.70;;;29.90;56.00;;;;;;4207640;28;20044;-48
2021/06/17 11:35:07;;;;;;;0.08;0.08;;;29.90;56.00;;;;;;4220308;28;20214;-47
2021/06/17 11:37:33;;;;;;;0.38;0.32;;;29.90;55.90;;;;;;4224082;28;20061;-50
2021/06/17 11:39:55;;;;;;;0.30;0.30;;;29.90;55.80;;;;;;4224023;28;20047;-50
2021/06/17 11:42:20;;;;;;;0.40;0.40;;;30.00;55.70;;;;;;4223534;28;20047;-52
2021/06/17 11:44:42;;;;;;;0.10;0.10;;;30.00;55.70;;;;;;4223202;28;20138;-51
2021/06/17 11:47:07;;;;;;;0.00;0.00;;;30.00;55.50;;;;;;4200218;28;20049;-50
2021/06/17 11:49:34;;;;;;;0.00;0.00;;;30.00;55.40;;;;;;4207268;28;20052;-50
2021/06/17 11:51:56;;;;;;;2.67;0.50;;;30.00;55.20;;;;;;4207489;28;20119;-47
2021/06/17 11:54:24;;;;;;;0.30;0.30;;;30.00;55.00;;;;;;4217372;28;20059;-49
2021/06/17 11:56:46;;;;;;;0.00;0.00;;;30.00;54.80;;;;;;4220897;28;20047;-52
2021/06/17 11:59:17;;;;;;;0.35;0.35;;;30.10;54.70;;;;;;4224048;28;20048;-49
2021/06/17 12:01:39;;;;;;;0.30;0.30;;;30.10;54.50;;;;;;4222692;28;20058;-48
2021/06/17 12:04:09;;;;;;;0.25;0.25;;;30.10;54.30;;;;;;4225618;27;20043;-51
2021/06/17 12:06:33;;;;;;;0.20;0.20;;;30.20;54.10;;;;;;4226573;27;20043;-47
2021/06/17 12:09:09;;;;;;;0.15;0.15;;;30.20;53.90;;;;;;4226829;27;20562;-47
2021/06/17 12:11:31;;;;;;;0.32;0.32;;;30.20;53.70;;;;;;4226421;27;20122;-48
2021/06/17 12:13:54;;;;;;;0.20;0.20;;;30.20;53.40;;;;;;4226419;27;20482;-46
2021/06/17 12:16:18;;;;;;;0.00;0.00;;;30.30;53.20;;;;;;4227037;27;20051;-50
2021/06/17 12:18:42;;;;;;;0.10;0.10;;;30.30;53.20;;;;;;4225597;28;20493;-46
2021/06/17 12:21:06;;;;;;;0.10;0.10;;;30.40;53.20;;;;;;4220878;27;20071;-46
2021/06/17 12:23:30;;;;;;;0.10;0.10;;;30.30;53.10;;;;;;4209835;28;20413;-47
2021/06/17 12:25:58;;;;;;;0.35;0.35;;;30.40;53.20;;;;;;4216887;28;20047;-49
2021/06/17 12:28:21;;;;;;;0.00;0.00;;;30.40;53.20;;;;;;4225116;27;20405;-47
2021/06/17 12:30:44;;;;;;;0.50;0.50;;;30.50;53.20;;;;;;4226663;27;20532;-47
2021/06/17 12:33:13;;;;;;;0.10;0.10;;;30.50;53.10;;;;;;4226141;28;20055;-49
2021/06/17 12:35:45;;;;;;;0.00;0.00;;;30.50;53.00;;;;;;4226729;27;20127;-51
2021/06/17 12:38:09;;;;;;;0.17;0.17;;;30.50;52.80;;;;;;4226313;28;20568;-47